Impacts TAF Board
For situational awareness. Not to be used for flight planning purposes.
IDs:

KDFW - Dallas-Ft Worth Intl, TX, US

Issued at 0905 UTC 18 Oct 2018
Updated at 0952 UTC 18 Oct 2018
Potential Impact None Slight Moderate High
Time<<18/22Z 18/23Z 19/00Z 19/01Z 19/02Z 19/03Z 19/04Z 19/05Z 19/06Z 19/07Z 19/08Z 19/09Z 19/10Z>>
Type PRVL PRVL PRVL PRVL PRVL PRVL PRVL PRVL PRVL PRVL PRVL PRVL PRVL
VIS >6 >6 >6 >6 >6 >6 >6 >6 5 5 5 5 5
CIG 25 25 25 25 25 25 25 25 15 15 15 15 15
Cover OVC OVC OVC OVC OVC OVC OVC OVC OVC OVC OVC OVC OVC
FltCat MVFR MVFR MVFR MVFR MVFR MVFR MVFR MVFR MVFR MVFR MVFR MVFR MVFR
WX -RA -RA -RA -RA -RA -RA -RA -RA -RA BR -RA BR -RA BR -RA BR -RA BR
WDir 50 50 50 50 50 50 50 50 40 40 40 40 40
WSpd 8 8 8 8 8 8 8 8 6 6 6 6 6
WGst -- -- -- -- -- -- -- -- -- -- -- -- --
Raw TAF
KDFW 180905Z 1809/1912 04005KT P6SM -SHRA OVC050
  FM182200 05008KT P6SM -RA OVC025
  FM190600 04006KT 5SM -RA BR OVC015


METAR Board
Radar Display
Forecast Discussion
For situational awareness. Not to be used for flight planning purposes.